Astrid Conroy — ZGAQ5 — position and weather

sailwx.info

Track history (hours):
 
Tides and Currents Weather Stations Pressure Air Temp Water Temp Dewpoint Dewpoint Depression Visibility Wind Speed Wind Dir Waves Ship Positions

Astrid Conroy

Last reported at 2015-Jul-08 01:29 UTC. Time now 2015-Jul-08 02:17 UTC.
Position N 42°19' E 018°11'.

Length 58 m; draft 3.5 m.

Type: Pleasure craft. MMSI: 319031500.

Date/timePositionNaut miles runAvg speedWind from/ knotsBaromVisibWave heightAir tempDewpointWater temp
2015-Jul-08 01:29N 42°19' E 018°11'1515.6
2015-Jul-08 00:33N 42°14' E 018°30'1515.5
2015-Jul-07 23:33N 42°09' E 018°50'11 1.8
2015-Jul-07 17:33N 42°06' E 019°04'2015.0
2015-Jul-07 16:13N 41°46' E 019°02'1015.5
2015-Jul-07 15:33N 41°35' E 019°01'27213.6
2015-Jul-06 19:31N 37°48' E 015°48'1414.8
2015-Jul-06 18:33N 37°58' E 015°35'1514.7
2015-Jul-06 17:33N 38°13' E 015°36'1110.9
2015-Jul-06 16:33N 38°23' E 015°35'1615.7
2015-Jul-06 15:33N 38°34' E 015°20'1514.5
2015-Jul-06 14:33N 38°44' E 015°07'15515.3
2015-Jul-06 04:24N 40°37' E 012°48'7815.8
2015-Jul-05 23:27N 41°34' E 011°37'1615.8
2015-Jul-05 22:26N 41°46' E 011°22'3015.7
2015-Jul-05 20:32N 42°07' E 010°55'1615.9
2015-Jul-05 19:33N 42°19' E 010°40'2115.8
2015-Jul-05 18:15N 42°33' E 010°20'1215.6
2015-Jul-05 17:29N 42°41' E 010°08'3515.2
2015-Jul-05 15:08N 43°03' E 009°30'915.3
2015-Jul-05 14:33N 43°08' E 009°20'1515.1
2015-Jul-05 13:33N 43°14' E 009°01'1515.3
2015-Jul-05 12:33N 43°20' E 008°42'1515.4
2015-Jul-05 11:33N 43°26' E 008°22'1515.3
2015-Jul-05 10:33N 43°33' E 008°03'1515.0
2015-Jul-05 09:33N 43°39' E 007°44'14 0.9
2015-Jul-04 17:11N 43°44' E 007°26'0 0.0
2015-Jul-04 16:33N 43°44' E 007°26'5 4.8
2015-Jul-04 15:33N 43°42' E 007°21'0 0.0
2015-Jul-04 14:33N 43°42' E 007°21'0 0.0
2015-Jul-04 13:33N 43°42' E 007°21'0 0.0
2015-Jul-04 12:33N 43°42' E 007°21'0 0.0
2015-Jul-04 10:18N 43°42' E 007°21'0 0.0
2015-Jul-04 09:30N 43°42' E 007°21'5 0.7
2015-Jul-04 01:33N 43°44' E 007°27'9 8.8
2015-Jul-04 00:33N 43°38' E 007°18'6 6.1
2015-Jul-03 23:30N 43°39' E 007°10'0 0.0
2015-Jul-03 22:24N 43°39' E 007°10'0 0.0
2015-Jul-03 21:24N 43°39' E 007°10'0 0.0
2015-Jul-03 20:24N 43°39' E 007°10'0 0.0
2015-Jul-03 19:30N 43°39' E 007°10'0 0.0
2015-Jul-03 18:24N 43°39' E 007°10'0 0.0
2015-Jul-03 17:30N 43°39' E 007°10'0 0.0
2015-Jul-03 16:30N 43°39' E 007°10'1 1.2
2015-Jul-03 15:33N 43°38' E 007°09'3 2.9
2015-Jul-03 14:32N 43°35' E 007°08'0 0.0
2015-Jul-03 13:20N 43°35' E 007°08'0 0.0
2015-Jul-03 12:32N 43°35' E 007°08'0 0.0
2015-Jul-03 11:32N 43°35' E 007°08'0 0.0
2015-Jul-03 10:32N 43°35' E 007°08'0 0.0
2015-Jul-03 09:32N 43°35' E 007°08'0 0.0
2015-Jul-03 08:32N 43°35' E 007°08'0 0.0
2015-Jul-03 07:32N 43°35' E 007°08'0 0.0
2015-Jul-03 06:32N 43°35' E 007°08'0 0.0
2015-Jul-03 05:32N 43°35' E 007°08'0 0.0
2015-Jul-03 04:26N 43°35' E 007°08'0 0.0
2015-Jul-03 03:32N 43°35' E 007°08'0 0.0
2015-Jul-03 02:32N 43°35' E 007°08'0 0.0
2015-Jul-03 01:32N 43°35' E 007°08'0 0.0
2015-Jul-03 00:32N 43°35' E 007°08'0 0.0
2015-Jul-02 23:32N 43°35' E 007°08'0 0.0
2015-Jul-02 22:32N 43°35' E 007°08'0 0.0
2015-Jul-02 21:26N 43°35' E 007°08'0 0.0
2015-Jul-02 20:32N 43°35' E 007°08'0 0.0
2015-Jul-02 19:32N 43°35' E 007°08'0 0.0
2015-Jul-02 18:32N 43°35' E 007°08'0 0.0
2015-Jul-02 17:32N 43°35' E 007°08'0 0.0
2015-Jul-02 16:32N 43°35' E 007°08'0 0.0
2015-Jul-02 15:29N 43°35' E 007°08'0 0.0
2015-Jul-02 14:26N 43°35' E 007°08'0 0.0
2015-Jul-02 13:32N 43°35' E 007°08'0 0.0
2015-Jul-02 12:32N 43°35' E 007°08'0 0.0
2015-Jul-02 11:32N 43°35' E 007°08'0 0.0
2015-Jul-02 10:20N 43°35' E 007°08'0 0.0
2015-Jul-02 09:32N 43°35' E 007°08'0 0.0
2015-Jul-02 08:32N 43°35' E 007°08'0 0.0
2015-Jul-02 07:32N 43°35' E 007°08'0 0.0
2015-Jul-02 06:32N 43°35' E 007°08'0 0.0
2015-Jul-02 05:32N 43°35' E 007°08'0 0.0
2015-Jul-02 04:32N 43°35' E 007°08'0 0.0
2015-Jul-02 03:32N 43°35' E 007°08'0 0.0
2015-Jul-02 02:32N 43°35' E 007°08'0 0.0
2015-Jul-02 01:32N 43°35' E 007°08'0 0.0
2015-Jul-02 00:32N 43°35' E 007°08'0 0.0
2015-Jul-01 23:32N 43°35' E 007°08'0 0.0
2015-Jul-01 22:32N 43°35' E 007°08'0 0.0
2015-Jul-01 21:32N 43°35' E 007°08'0 0.0
2015-Jul-01 20:32N 43°35' E 007°08'0 0.0
2015-Jul-01 19:32N 43°35' E 007°08'0 0.0
2015-Jul-01 18:32N 43°35' E 007°08'0 0.0
2015-Jul-01 17:32N 43°35' E 007°08'0 0.0
2015-Jul-01 16:32N 43°35' E 007°08'0 0.0
2015-Jul-01 15:32N 43°35' E 007°08'1 0.5
2015-Jul-01 14:28N 43°35' E 007°08'0 0.0
2015-Jul-01 13:28N 43°35' E 007°08'0 0.0
2015-Jul-01 12:22N 43°35' E 007°08'0 0.0
2015-Jul-01 11:28N 43°35' E 007°08'0 0.0
2015-Jul-01 10:31N 43°35' E 007°08'3 2.7
2015-Jul-01 09:33N 43°34' E 007°12'1515.3
2015-Jul-01 08:34N 43°24' E 007°28'1313.1
2015-Jul-01 07:33N 43°34' E 007°16'6 4.8
2015-Jul-01 06:21N 43°35' E 007°08'0 0.0
2015-Jul-01 05:33N 43°35' E 007°08'0 0.0
2015-Jul-01 04:33N 43°35' E 007°08'0 0.0
2015-Jul-01 03:33N 43°35' E 007°08'0 0.0
2015-Jul-01 02:33N 43°35' E 007°08'0 0.0
2015-Jul-01 01:33N 43°35' E 007°08'0 0.0
2015-Jul-01 00:33N 43°35' E 007°08'0 0.0
2015-Jun-30 23:33N 43°35' E 007°08'0 0.0
2015-Jun-30 22:33N 43°35' E 007°08'0 0.0
2015-Jun-30 21:33N 43°35' E 007°08'0 0.0
2015-Jun-30 20:33N 43°35' E 007°08'0 0.0
2015-Jun-30 19:33N 43°35' E 007°08'0 0.0
2015-Jun-30 18:33N 43°35' E 007°08'0 0.0
2015-Jun-30 17:33N 43°35' E 007°08'0 0.0
2015-Jun-30 16:33N 43°35' E 007°08'0 0.0
2015-Jun-30 15:27N 43°35' E 007°08'0 0.0
2015-Jun-30 14:33N 43°35' E 007°08'0 0.0
2015-Jun-30 13:33N 43°35' E 007°08'0 0.0
2015-Jun-30 12:33N 43°35' E 007°08'0 0.0
2015-Jun-30 11:33N 43°35' E 007°08'0 0.0
2015-Jun-30 10:33N 43°35' E 007°08'0 0.0
2015-Jun-30 09:33N 43°35' E 007°08'0 0.0
2015-Jun-30 08:33N 43°35' E 007°08'0 0.0
2015-Jun-30 07:33N 43°35' E 007°08'0 0.0
2015-Jun-30 06:33N 43°35' E 007°08'0 0.0
2015-Jun-30 05:33N 43°35' E 007°08'0 0.0
2015-Jun-30 04:33N 43°35' E 007°08'0 0.0
2015-Jun-30 03:33N 43°35' E 007°08'0 0.0
2015-Jun-30 02:27N 43°35' E 007°08'0 0.0
2015-Jun-30 01:33N 43°35' E 007°08'0 0.0
2015-Jun-30 00:33N 43°35' E 007°08'0 0.0
2015-Jun-29 23:27N 43°35' E 007°08'0 0.0
2015-Jun-29 22:27N 43°35' E 007°08'0 0.0
2015-Jun-29 21:33N 43°35' E 007°08'0 0.0
2015-Jun-29 20:27N 43°35' E 007°08'0 0.0
2015-Jun-29 19:33N 43°35' E 007°08'0 0.0
2015-Jun-29 18:33N 43°35' E 007°08'0 0.0
2015-Jun-29 17:33N 43°35' E 007°08'0 0.0
2015-Jun-29 16:33N 43°35' E 007°08'0 0.0
2015-Jun-29 15:33N 43°35' E 007°08'0 0.0
2015-Jun-29 14:33N 43°35' E 007°08'0 0.0
2015-Jun-29 13:33N 43°35' E 007°08'0 0.0
2015-Jun-29 12:27N 43°35' E 007°08'0 0.0
2015-Jun-29 11:33N 43°35' E 007°08'0 0.0
2015-Jun-29 10:33N 43°35' E 007°08'0 0.0
2015-Jun-29 09:33N 43°35' E 007°08'0 0.0
2015-Jun-29 08:33N 43°35' E 007°08'0 0.0
2015-Jun-29 07:33N 43°35' E 007°08'0 0.0
2015-Jun-29 06:33N 43°35' E 007°08'0 0.0
2015-Jun-29 05:33N 43°35' E 007°08'0 0.0
2015-Jun-29 04:33N 43°35' E 007°08'0 0.0
2015-Jun-29 03:33N 43°35' E 007°08'0 0.0
2015-Jun-29 02:33N 43°35' E 007°08'0 0.0
2015-Jun-29 01:33N 43°35' E 007°08'0 0.0
2015-Jun-29 00:33N 43°35' E 007°08'0 0.0
2015-Jun-28 23:33N 43°35' E 007°08'0 0.0
2015-Jun-28 22:33N 43°35' E 007°08'0 0.0
2015-Jun-28 21:33N 43°35' E 007°08'0 0.0
2015-Jun-28 20:33N 43°35' E 007°08'0 0.0
2015-Jun-28 19:33N 43°35' E 007°08'0 0.0
2015-Jun-28 18:33N 43°35' E 007°08'0 0.0
2015-Jun-28 17:33N 43°35' E 007°08'0 0.0
2015-Jun-28 16:33N 43°35' E 007°08'0 0.0
2015-Jun-28 15:33N 43°35' E 007°08'0 0.0
2015-Jun-28 14:27N 43°35' E 007°08'0 0.0
2015-Jun-28 13:33N 43°35' E 007°08'0 0.0
2015-Jun-28 12:27N 43°35' E 007°08'0 0.0
2015-Jun-28 11:33N 43°35' E 007°08'0 0.0
2015-Jun-28 10:33N 43°35' E 007°08'0 0.0
2015-Jun-28 09:33N 43°35' E 007°08'0 0.0
2015-Jun-28 08:33N 43°35' E 007°08'0 0.0
2015-Jun-28 07:33N 43°35' E 007°08'0 0.0
2015-Jun-28 06:33N 43°35' E 007°08'0 0.0
2015-Jun-28 05:33N 43°35' E 007°08'0 0.0
2015-Jun-28 04:27N 43°35' E 007°08'0 0.0
2015-Jun-28 03:33N 43°35' E 007°08'0 0.0
2015-Jun-28 02:33N 43°35' E 007°08'0 0.0
2015-Jun-28 01:33N 43°35' E 007°08'  
Track history (hours):
 
Tides and Currents Weather Stations Pressure Air Temp Water Temp Dewpoint Dewpoint Depression Visibility Wind Speed Wind Dir Waves Ship Positions

Astrid Conroy

Last reported at 2015-Jul-08 01:29 UTC. Time now 2015-Jul-08 02:17 UTC.
Position N 42°19' E 018°11'.

Length 58 m; draft 3.5 m.

Type: Pleasure craft. MMSI: 319031500.

Date/timePositionNaut miles runAvg speedWind from/ knotsBaromVisibWave heightAir tempDewpointWater temp
2015-Jul-08 01:29N 42°19' E 018°11'1515.6
2015-Jul-08 00:33N 42°14' E 018°30'1515.5
2015-Jul-07 23:33N 42°09' E 018°50'11 1.8
2015-Jul-07 17:33N 42°06' E 019°04'2015.0
2015-Jul-07 16:13N 41°46' E 019°02'1015.5
2015-Jul-07 15:33N 41°35' E 019°01'27213.6
2015-Jul-06 19:31N 37°48' E 015°48'1414.8
2015-Jul-06 18:33N 37°58' E 015°35'1514.7
2015-Jul-06 17:33N 38°13' E 015°36'1110.9
2015-Jul-06 16:33N 38°23' E 015°35'1615.7
2015-Jul-06 15:33N 38°34' E 015°20'1514.5
2015-Jul-06 14:33N 38°44' E 015°07'15515.3
2015-Jul-06 04:24N 40°37' E 012°48'7815.8
2015-Jul-05 23:27N 41°34' E 011°37'1615.8
2015-Jul-05 22:26N 41°46' E 011°22'3015.7
2015-Jul-05 20:32N 42°07' E 010°55'1615.9
2015-Jul-05 19:33N 42°19' E 010°40'2115.8
2015-Jul-05 18:15N 42°33' E 010°20'1215.6
2015-Jul-05 17:29N 42°41' E 010°08'3515.2
2015-Jul-05 15:08N 43°03' E 009°30'915.3
2015-Jul-05 14:33N 43°08' E 009°20'1515.1
2015-Jul-05 13:33N 43°14' E 009°01'1515.3
2015-Jul-05 12:33N 43°20' E 008°42'1515.4
2015-Jul-05 11:33N 43°26' E 008°22'1515.3
2015-Jul-05 10:33N 43°33' E 008°03'1515.0
2015-Jul-05 09:33N 43°39' E 007°44'14 0.9
2015-Jul-04 17:11N 43°44' E 007°26'0 0.0
2015-Jul-04 16:33N 43°44' E 007°26'5 4.8
2015-Jul-04 15:33N 43°42' E 007°21'0 0.0
2015-Jul-04 14:33N 43°42' E 007°21'0 0.0
2015-Jul-04 13:33N 43°42' E 007°21'0 0.0
2015-Jul-04 12:33N 43°42' E 007°21'0 0.0
2015-Jul-04 10:18N 43°42' E 007°21'0 0.0
2015-Jul-04 09:30N 43°42' E 007°21'5 0.7
2015-Jul-04 01:33N 43°44' E 007°27'9 8.8
2015-Jul-04 00:33N 43°38' E 007°18'6 6.1
2015-Jul-03 23:30N 43°39' E 007°10'0 0.0
2015-Jul-03 22:24N 43°39' E 007°10'0 0.0
2015-Jul-03 21:24N 43°39' E 007°10'0 0.0
2015-Jul-03 20:24N 43°39' E 007°10'0 0.0
2015-Jul-03 19:30N 43°39' E 007°10'0 0.0
2015-Jul-03 18:24N 43°39' E 007°10'0 0.0
2015-Jul-03 17:30N 43°39' E 007°10'0 0.0
2015-Jul-03 16:30N 43°39' E 007°10'1 1.2
2015-Jul-03 15:33N 43°38' E 007°09'3 2.9
2015-Jul-03 14:32N 43°35' E 007°08'0 0.0
2015-Jul-03 13:20N 43°35' E 007°08'0 0.0
2015-Jul-03 12:32N 43°35' E 007°08'0 0.0
2015-Jul-03 11:32N 43°35' E 007°08'0 0.0
2015-Jul-03 10:32N 43°35' E 007°08'0 0.0
2015-Jul-03 09:32N 43°35' E 007°08'0 0.0
2015-Jul-03 08:32N 43°35' E 007°08'0 0.0
2015-Jul-03 07:32N 43°35' E 007°08'0 0.0
2015-Jul-03 06:32N 43°35' E 007°08'0 0.0
2015-Jul-03 05:32N 43°35' E 007°08'0 0.0
2015-Jul-03 04:26N 43°35' E 007°08'0 0.0
2015-Jul-03 03:32N 43°35' E 007°08'0 0.0
2015-Jul-03 02:32N 43°35' E 007°08'0 0.0
2015-Jul-03 01:32N 43°35' E 007°08'0 0.0
2015-Jul-03 00:32N 43°35' E 007°08'0 0.0
2015-Jul-02 23:32N 43°35' E 007°08'0 0.0
2015-Jul-02 22:32N 43°35' E 007°08'0 0.0
2015-Jul-02 21:26N 43°35' E 007°08'0 0.0
2015-Jul-02 20:32N 43°35' E 007°08'0 0.0
2015-Jul-02 19:32N 43°35' E 007°08'0 0.0
2015-Jul-02 18:32N 43°35' E 007°08'0 0.0
2015-Jul-02 17:32N 43°35' E 007°08'0 0.0
2015-Jul-02 16:32N 43°35' E 007°08'0 0.0
2015-Jul-02 15:29N 43°35' E 007°08'0 0.0
2015-Jul-02 14:26N 43°35' E 007°08'0 0.0
2015-Jul-02 13:32N 43°35' E 007°08'0 0.0
2015-Jul-02 12:32N 43°35' E 007°08'0 0.0
2015-Jul-02 11:32N 43°35' E 007°08'0 0.0
2015-Jul-02 10:20N 43°35' E 007°08'0 0.0
2015-Jul-02 09:32N 43°35' E 007°08'0 0.0
2015-Jul-02 08:32N 43°35' E 007°08'0 0.0
2015-Jul-02 07:32N 43°35' E 007°08'0 0.0
2015-Jul-02 06:32N 43°35' E 007°08'0 0.0
2015-Jul-02 05:32N 43°35' E 007°08'0 0.0
2015-Jul-02 04:32N 43°35' E 007°08'0 0.0
2015-Jul-02 03:32N 43°35' E 007°08'0 0.0
2015-Jul-02 02:32N 43°35' E 007°08'0 0.0
2015-Jul-02 01:32N 43°35' E 007°08'0 0.0
2015-Jul-02 00:32N 43°35' E 007°08'0 0.0
2015-Jul-01 23:32N 43°35' E 007°08'0 0.0
2015-Jul-01 22:32N 43°35' E 007°08'0 0.0
2015-Jul-01 21:32N 43°35' E 007°08'0 0.0
2015-Jul-01 20:32N 43°35' E 007°08'0 0.0
2015-Jul-01 19:32N 43°35' E 007°08'0 0.0
2015-Jul-01 18:32N 43°35' E 007°08'0 0.0
2015-Jul-01 17:32N 43°35' E 007°08'0 0.0
2015-Jul-01 16:32N 43°35' E 007°08'0 0.0
2015-Jul-01 15:32N 43°35' E 007°08'1 0.5
2015-Jul-01 14:28N 43°35' E 007°08'0 0.0
2015-Jul-01 13:28N 43°35' E 007°08'0 0.0
2015-Jul-01 12:22N 43°35' E 007°08'0 0.0
2015-Jul-01 11:28N 43°35' E 007°08'0 0.0
2015-Jul-01 10:31N 43°35' E 007°08'3 2.7
2015-Jul-01 09:33N 43°34' E 007°12'1515.3
2015-Jul-01 08:34N 43°24' E 007°28'1313.1
2015-Jul-01 07:33N 43°34' E 007°16'6 4.8
2015-Jul-01 06:21N 43°35' E 007°08'0 0.0
2015-Jul-01 05:33N 43°35' E 007°08'0 0.0
2015-Jul-01 04:33N 43°35' E 007°08'0 0.0
2015-Jul-01 03:33N 43°35' E 007°08'0 0.0
2015-Jul-01 02:33N 43°35' E 007°08'0 0.0
2015-Jul-01 01:33N 43°35' E 007°08'0 0.0
2015-Jul-01 00:33N 43°35' E 007°08'0 0.0
2015-Jun-30 23:33N 43°35' E 007°08'0 0.0
2015-Jun-30 22:33N 43°35' E 007°08'0 0.0
2015-Jun-30 21:33N 43°35' E 007°08'0 0.0
2015-Jun-30 20:33N 43°35' E 007°08'0 0.0
2015-Jun-30 19:33N 43°35' E 007°08'0 0.0
2015-Jun-30 18:33N 43°35' E 007°08'0 0.0
2015-Jun-30 17:33N 43°35' E 007°08'0 0.0
2015-Jun-30 16:33N 43°35' E 007°08'0 0.0
2015-Jun-30 15:27N 43°35' E 007°08'0 0.0
2015-Jun-30 14:33N 43°35' E 007°08'0 0.0
2015-Jun-30 13:33N 43°35' E 007°08'0 0.0
2015-Jun-30 12:33N 43°35' E 007°08'0 0.0
2015-Jun-30 11:33N 43°35' E 007°08'0 0.0
2015-Jun-30 10:33N 43°35' E 007°08'0 0.0
2015-Jun-30 09:33N 43°35' E 007°08'0 0.0
2015-Jun-30 08:33N 43°35' E 007°08'0 0.0
2015-Jun-30 07:33N 43°35' E 007°08'0 0.0
2015-Jun-30 06:33N 43°35' E 007°08'0 0.0
2015-Jun-30 05:33N 43°35' E 007°08'0 0.0
2015-Jun-30 04:33N 43°35' E 007°08'0 0.0
2015-Jun-30 03:33N 43°35' E 007°08'0 0.0
2015-Jun-30 02:27N 43°35' E 007°08'0 0.0
2015-Jun-30 01:33N 43°35' E 007°08'0 0.0
2015-Jun-30 00:33N 43°35' E 007°08'0 0.0
2015-Jun-29 23:27N 43°35' E 007°08'0 0.0
2015-Jun-29 22:27N 43°35' E 007°08'0 0.0
2015-Jun-29 21:33N 43°35' E 007°08'0 0.0
2015-Jun-29 20:27N 43°35' E 007°08'0 0.0
2015-Jun-29 19:33N 43°35' E 007°08'0 0.0
2015-Jun-29 18:33N 43°35' E 007°08'0 0.0
2015-Jun-29 17:33N 43°35' E 007°08'0 0.0
2015-Jun-29 16:33N 43°35' E 007°08'0 0.0
2015-Jun-29 15:33N 43°35' E 007°08'0 0.0
2015-Jun-29 14:33N 43°35' E 007°08'0 0.0
2015-Jun-29 13:33N 43°35' E 007°08'0 0.0
2015-Jun-29 12:27N 43°35' E 007°08'0 0.0
2015-Jun-29 11:33N 43°35' E 007°08'0 0.0
2015-Jun-29 10:33N 43°35' E 007°08'0 0.0
2015-Jun-29 09:33N 43°35' E 007°08'0 0.0
2015-Jun-29 08:33N 43°35' E 007°08'0 0.0
2015-Jun-29 07:33N 43°35' E 007°08'0 0.0
2015-Jun-29 06:33N 43°35' E 007°08'0 0.0
2015-Jun-29 05:33N 43°35' E 007°08'0 0.0
2015-Jun-29 04:33N 43°35' E 007°08'0 0.0
2015-Jun-29 03:33N 43°35' E 007°08'0 0.0
2015-Jun-29 02:33N 43°35' E 007°08'0 0.0
2015-Jun-29 01:33N 43°35' E 007°08'0 0.0
2015-Jun-29 00:33N 43°35' E 007°08'0 0.0
2015-Jun-28 23:33N 43°35' E 007°08'0 0.0
2015-Jun-28 22:33N 43°35' E 007°08'0 0.0
2015-Jun-28 21:33N 43°35' E 007°08'0 0.0
2015-Jun-28 20:33N 43°35' E 007°08'0 0.0
2015-Jun-28 19:33N 43°35' E 007°08'0 0.0
2015-Jun-28 18:33N 43°35' E 007°08'0 0.0
2015-Jun-28 17:33N 43°35' E 007°08'0 0.0
2015-Jun-28 16:33N 43°35' E 007°08'0 0.0
2015-Jun-28 15:33N 43°35' E 007°08'0 0.0
2015-Jun-28 14:27N 43°35' E 007°08'0 0.0
2015-Jun-28 13:33N 43°35' E 007°08'0 0.0
2015-Jun-28 12:27N 43°35' E 007°08'0 0.0
2015-Jun-28 11:33N 43°35' E 007°08'0 0.0
2015-Jun-28 10:33N 43°35' E 007°08'0 0.0
2015-Jun-28 09:33N 43°35' E 007°08'0 0.0
2015-Jun-28 08:33N 43°35' E 007°08'0 0.0
2015-Jun-28 07:33N 43°35' E 007°08'0 0.0
2015-Jun-28 06:33N 43°35' E 007°08'0 0.0
2015-Jun-28 05:33N 43°35' E 007°08'0 0.0
2015-Jun-28 04:27N 43°35' E 007°08'0 0.0
2015-Jun-28 03:33N 43°35' E 007°08'0 0.0
2015-Jun-28 02:33N 43°35' E 007°08'0 0.0
2015-Jun-28 01:33N 43°35' E 007°08'  

Dump ship's entire track history